sensor_id;sensor_type;location;lat;lon;timestamp;P1;durP1;ratioP1;P2;durP2;ratioP2
21480;SDS011;10902;48.158;8.634;2023-08-08T00:00:11;4.47;;;2.20;;
21480;SDS011;10902;48.158;8.634;2023-08-08T00:02:58;5.53;;;2.33;;
21480;SDS011;10902;48.158;8.634;2023-08-08T00:05:43;5.40;;;2.20;;
21480;SDS011;10902;48.158;8.634;2023-08-08T00:08:29;4.72;;;2.28;;
21480;SDS011;10902;48.158;8.634;2023-08-08T00:11:14;6.35;;;3.00;;
21480;SDS011;10902;48.158;8.634;2023-08-08T00:14:00;6.00;;;2.70;;
21480;SDS011;10902;48.158;8.634;2023-08-08T00:16:46;5.90;;;2.60;;
21480;SDS011;10902;48.158;8.634;2023-08-08T00:19:31;5.63;;;2.83;;
21480;SDS011;10902;48.158;8.634;2023-08-08T00:22:17;4.70;;;2.63;;
21480;SDS011;10902;48.158;8.634;2023-08-08T00:25:02;5.35;;;2.70;;
21480;SDS011;10902;48.158;8.634;2023-08-08T00:27:49;5.65;;;2.85;;
21480;SDS011;10902;48.158;8.634;2023-08-08T00:30:35;6.93;;;3.05;;
21480;SDS011;10902;48.158;8.634;2023-08-08T00:33:20;6.38;;;2.83;;
21480;SDS011;10902;48.158;8.634;2023-08-08T00:36:06;5.30;;;2.50;;
21480;SDS011;10902;48.158;8.634;2023-08-08T00:38:52;5.68;;;2.50;;
21480;SDS011;10902;48.158;8.634;2023-08-08T00:41:37;5.30;;;2.80;;
21480;SDS011;10902;48.158;8.634;2023-08-08T00:44:23;5.93;;;2.75;;
21480;SDS011;10902;48.158;8.634;2023-08-08T00:47:09;8.20;;;3.03;;
21480;SDS011;10902;48.158;8.634;2023-08-08T00:49:55;7.68;;;3.47;;
21480;SDS011;10902;48.158;8.634;2023-08-08T00:52:41;6.22;;;3.15;;
21480;SDS011;10902;48.158;8.634;2023-08-08T00:55:28;7.28;;;3.72;;
21480;SDS011;10902;48.158;8.634;2023-08-08T00:58:13;5.43;;;3.42;;
21480;SDS011;10902;48.158;8.634;2023-08-08T01:01:01;7.22;;;3.25;;
21480;SDS011;10902;48.158;8.634;2023-08-08T01:03:46;11.57;;;3.42;;
21480;SDS011;10902;48.158;8.634;2023-08-08T01:06:43;6.00;;;3.17;;
21480;SDS011;10902;48.158;8.634;2023-08-08T01:09:41;6.53;;;3.40;;
21480;SDS011;10902;48.158;8.634;2023-08-08T01:12:38;4.97;;;2.83;;
21480;SDS011;10902;48.158;8.634;2023-08-08T01:15:34;6.35;;;3.25;;
21480;SDS011;10902;48.158;8.634;2023-08-08T01:18:20;4.75;;;2.80;;
21480;SDS011;10902;48.158;8.634;2023-08-08T01:21:07;6.80;;;3.10;;
21480;SDS011;10902;48.158;8.634;2023-08-08T01:24:17;6.13;;;3.25;;
21480;SDS011;10902;48.158;8.634;2023-08-08T01:27:07;6.28;;;3.20;;
21480;SDS011;10902;48.158;8.634;2023-08-08T01:29:53;5.00;;;2.90;;
21480;SDS011;10902;48.158;8.634;2023-08-08T01:32:39;4.93;;;3.08;;
21480;SDS011;10902;48.158;8.634;2023-08-08T01:35:26;6.45;;;3.38;;
21480;SDS011;10902;48.158;8.634;2023-08-08T01:41:17;7.70;;;3.65;;
21480;SDS011;10902;48.158;8.634;2023-08-08T01:44:03;6.93;;;3.25;;
21480;SDS011;10902;48.158;8.634;2023-08-08T01:46:50;6.13;;;3.35;;
21480;SDS011;10902;48.158;8.634;2023-08-08T01:49:36;6.82;;;3.50;;
21480;SDS011;10902;48.158;8.634;2023-08-08T01:52:21;6.72;;;3.55;;
21480;SDS011;10902;48.158;8.634;2023-08-08T01:55:08;8.38;;;3.95;;
21480;SDS011;10902;48.158;8.634;2023-08-08T01:57:54;7.53;;;3.33;;
21480;SDS011;10902;48.158;8.634;2023-08-08T02:00:39;7.57;;;3.55;;
21480;SDS011;10902;48.158;8.634;2023-08-08T02:03:29;6.22;;;3.47;;
21480;SDS011;10902;48.158;8.634;2023-08-08T02:06:15;4.88;;;3.15;;
21480;SDS011;10902;48.158;8.634;2023-08-08T02:09:01;6.32;;;3.17;;
21480;SDS011;10902;48.158;8.634;2023-08-08T02:11:46;6.03;;;3.53;;
21480;SDS011;10902;48.158;8.634;2023-08-08T02:14:32;4.70;;;2.83;;
21480;SDS011;10902;48.158;8.634;2023-08-08T02:17:17;6.38;;;3.55;;
21480;SDS011;10902;48.158;8.634;2023-08-08T02:20:03;5.35;;;2.85;;
21480;SDS011;10902;48.158;8.634;2023-08-08T02:22:50;5.90;;;2.90;;
21480;SDS011;10902;48.158;8.634;2023-08-08T02:25:35;4.60;;;2.50;;
21480;SDS011;10902;48.158;8.634;2023-08-08T02:28:21;5.72;;;2.70;;
21480;SDS011;10902;48.158;8.634;2023-08-08T02:31:06;5.75;;;2.72;;
21480;SDS011;10902;48.158;8.634;2023-08-08T02:33:52;5.28;;;2.53;;
21480;SDS011;10902;48.158;8.634;2023-08-08T02:36:38;6.38;;;2.65;;
21480;SDS011;10902;48.158;8.634;2023-08-08T02:39:23;5.22;;;2.92;;
21480;SDS011;10902;48.158;8.634;2023-08-08T02:42:09;5.03;;;2.40;;
21480;SDS011;10902;48.158;8.634;2023-08-08T02:44:55;8.05;;;2.67;;
21480;SDS011;10902;48.158;8.634;2023-08-08T02:47:40;5.38;;;2.30;;
21480;SDS011;10902;48.158;8.634;2023-08-08T02:50:26;6.47;;;2.85;;
21480;SDS011;10902;48.158;8.634;2023-08-08T02:53:11;5.10;;;2.90;;
21480;SDS011;10902;48.158;8.634;2023-08-08T02:55:57;7.88;;;3.88;;
21480;SDS011;10902;48.158;8.634;2023-08-08T02:58:43;5.70;;;2.92;;
21480;SDS011;10902;48.158;8.634;2023-08-08T03:01:28;8.60;;;3.28;;
21480;SDS011;10902;48.158;8.634;2023-08-08T03:04:14;5.90;;;3.30;;
21480;SDS011;10902;48.158;8.634;2023-08-08T03:07:00;5.90;;;2.72;;
21480;SDS011;10902;48.158;8.634;2023-08-08T03:09:49;7.88;;;3.38;;
21480;SDS011;10902;48.158;8.634;2023-08-08T03:12:34;6.25;;;3.05;;
21480;SDS011;10902;48.158;8.634;2023-08-08T03:15:20;7.15;;;2.78;;
21480;SDS011;10902;48.158;8.634;2023-08-08T03:18:05;7.28;;;2.85;;
21480;SDS011;10902;48.158;8.634;2023-08-08T03:20:51;7.50;;;3.05;;
21480;SDS011;10902;48.158;8.634;2023-08-08T03:23:37;6.57;;;3.00;;
21480;SDS011;10902;48.158;8.634;2023-08-08T03:26:23;5.47;;;2.80;;
21480;SDS011;10902;48.158;8.634;2023-08-08T03:29:09;6.25;;;3.00;;
21480;SDS011;10902;48.158;8.634;2023-08-08T03:31:55;6.10;;;3.08;;
21480;SDS011;10902;48.158;8.634;2023-08-08T03:34:41;6.35;;;2.88;;
21480;SDS011;10902;48.158;8.634;2023-08-08T03:37:26;6.55;;;2.90;;
21480;SDS011;10902;48.158;8.634;2023-08-08T03:40:12;6.05;;;3.13;;
21480;SDS011;10902;48.158;8.634;2023-08-08T03:43:00;5.22;;;3.33;;
21480;SDS011;10902;48.158;8.634;2023-08-08T03:45:46;6.32;;;3.60;;
21480;SDS011;10902;48.158;8.634;2023-08-08T03:48:32;7.50;;;3.53;;
21480;SDS011;10902;48.158;8.634;2023-08-08T03:51:17;6.00;;;3.28;;
21480;SDS011;10902;48.158;8.634;2023-08-08T03:54:03;5.63;;;3.45;;
21480;SDS011;10902;48.158;8.634;2023-08-08T03:56:49;6.93;;;3.28;;
21480;SDS011;10902;48.158;8.634;2023-08-08T03:59:34;5.75;;;3.10;;
21480;SDS011;10902;48.158;8.634;2023-08-08T04:02:20;6.15;;;3.38;;
21480;SDS011;10902;48.158;8.634;2023-08-08T04:05:05;6.20;;;3.15;;
21480;SDS011;10902;48.158;8.634;2023-08-08T04:07:51;7.20;;;3.20;;
21480;SDS011;10902;48.158;8.634;2023-08-08T04:10:37;7.07;;;3.20;;
21480;SDS011;10902;48.158;8.634;2023-08-08T04:13:22;6.47;;;3.13;;
21480;SDS011;10902;48.158;8.634;2023-08-08T04:16:08;4.93;;;3.00;;
21480;SDS011;10902;48.158;8.634;2023-08-08T04:18:53;5.78;;;3.13;;
21480;SDS011;10902;48.158;8.634;2023-08-08T04:21:39;6.47;;;3.03;;
21480;SDS011;10902;48.158;8.634;2023-08-08T04:24:25;6.43;;;3.33;;
21480;SDS011;10902;48.158;8.634;2023-08-08T04:27:10;6.53;;;3.35;;
21480;SDS011;10902;48.158;8.634;2023-08-08T04:29:56;6.93;;;3.38;;
21480;SDS011;10902;48.158;8.634;2023-08-08T04:32:41;6.82;;;3.50;;
21480;SDS011;10902;48.158;8.634;2023-08-08T04:35:27;6.60;;;3.30;;
21480;SDS011;10902;48.158;8.634;2023-08-08T04:38:13;5.70;;;3.67;;
21480;SDS011;10902;48.158;8.634;2023-08-08T04:41:00;5.68;;;3.28;;
21480;SDS011;10902;48.158;8.634;2023-08-08T04:43:46;7.35;;;3.40;;
21480;SDS011;10902;48.158;8.634;2023-08-08T04:46:31;5.75;;;3.10;;
21480;SDS011;10902;48.158;8.634;2023-08-08T04:49:17;6.15;;;3.55;;
21480;SDS011;10902;48.158;8.634;2023-08-08T04:52:03;6.43;;;3.15;;
21480;SDS011;10902;48.158;8.634;2023-08-08T04:54:48;6.38;;;3.70;;
21480;SDS011;10902;48.158;8.634;2023-08-08T04:57:34;6.22;;;3.70;;
21480;SDS011;10902;48.158;8.634;2023-08-08T05:00:20;6.40;;;3.67;;
21480;SDS011;10902;48.158;8.634;2023-08-08T05:03:05;7.38;;;3.60;;
21480;SDS011;10902;48.158;8.634;2023-08-08T05:05:51;6.80;;;3.67;;
21480;SDS011;10902;48.158;8.634;2023-08-08T05:08:37;6.53;;;3.53;;
21480;SDS011;10902;48.158;8.634;2023-08-08T05:11:22;7.00;;;3.92;;
21480;SDS011;10902;48.158;8.634;2023-08-08T05:14:08;5.55;;;3.17;;
21480;SDS011;10902;48.158;8.634;2023-08-08T05:16:54;7.35;;;3.38;;
21480;SDS011;10902;48.158;8.634;2023-08-08T05:19:40;5.20;;;3.10;;
21480;SDS011;10902;48.158;8.634;2023-08-08T05:22:25;4.68;;;2.70;;
21480;SDS011;10902;48.158;8.634;2023-08-08T05:25:11;5.35;;;2.83;;
21480;SDS011;10902;48.158;8.634;2023-08-08T05:27:56;5.45;;;2.80;;
21480;SDS011;10902;48.158;8.634;2023-08-08T05:30:42;5.40;;;3.40;;
21480;SDS011;10902;48.158;8.634;2023-08-08T05:33:28;5.15;;;2.88;;
21480;SDS011;10902;48.158;8.634;2023-08-08T05:36:13;6.82;;;2.80;;
21480;SDS011;10902;48.158;8.634;2023-08-08T05:38:59;4.13;;;2.47;;
21480;SDS011;10902;48.158;8.634;2023-08-08T05:41:44;5.95;;;2.90;;
21480;SDS011;10902;48.158;8.634;2023-08-08T05:44:30;6.07;;;3.08;;
21480;SDS011;10902;48.158;8.634;2023-08-08T05:47:15;5.30;;;2.63;;
21480;SDS011;10902;48.158;8.634;2023-08-08T05:50:01;5.93;;;2.88;;
21480;SDS011;10902;48.158;8.634;2023-08-08T05:52:47;6.28;;;3.05;;
21480;SDS011;10902;48.158;8.634;2023-08-08T05:55:32;5.10;;;3.08;;
21480;SDS011;10902;48.158;8.634;2023-08-08T05:58:18;5.57;;;2.70;;
21480;SDS011;10902;48.158;8.634;2023-08-08T06:01:04;5.47;;;2.80;;
21480;SDS011;10902;48.158;8.634;2023-08-08T06:03:55;4.75;;;2.63;;
21480;SDS011;10902;48.158;8.634;2023-08-08T06:06:43;4.45;;;2.40;;
21480;SDS011;10902;48.158;8.634;2023-08-08T06:09:28;6.63;;;3.05;;
21480;SDS011;10902;48.158;8.634;2023-08-08T06:12:14;5.13;;;3.00;;
21480;SDS011;10902;48.158;8.634;2023-08-08T06:15:00;6.38;;;2.85;;
21480;SDS011;10902;48.158;8.634;2023-08-08T06:17:45;5.93;;;2.03;;
21480;SDS011;10902;48.158;8.634;2023-08-08T06:20:31;5.45;;;1.92;;
21480;SDS011;10902;48.158;8.634;2023-08-08T06:23:16;4.65;;;1.75;;
21480;SDS011;10902;48.158;8.634;2023-08-08T06:26:02;7.10;;;2.08;;
21480;SDS011;10902;48.158;8.634;2023-08-08T06:28:48;4.35;;;1.70;;
21480;SDS011;10902;48.158;8.634;2023-08-08T06:31:33;4.47;;;1.85;;
21480;SDS011;10902;48.158;8.634;2023-08-08T06:34:19;4.38;;;2.08;;
21480;SDS011;10902;48.158;8.634;2023-08-08T06:37:04;4.72;;;1.80;;
21480;SDS011;10902;48.158;8.634;2023-08-08T06:39:50;5.45;;;1.52;;
21480;SDS011;10902;48.158;8.634;2023-08-08T06:42:36;3.97;;;1.42;;
21480;SDS011;10902;48.158;8.634;2023-08-08T06:45:21;4.07;;;1.30;;
21480;SDS011;10902;48.158;8.634;2023-08-08T06:48:07;4.53;;;1.90;;
21480;SDS011;10902;48.158;8.634;2023-08-08T06:50:53;3.97;;;1.50;;
21480;SDS011;10902;48.158;8.634;2023-08-08T06:53:39;4.57;;;1.73;;
21480;SDS011;10902;48.158;8.634;2023-08-08T06:56:25;4.28;;;1.38;;
21480;SDS011;10902;48.158;8.634;2023-08-08T06:59:11;4.53;;;1.45;;
21480;SDS011;10902;48.158;8.634;2023-08-08T07:01:57;3.65;;;1.48;;
21480;SDS011;10902;48.158;8.634;2023-08-08T07:04:43;3.78;;;1.23;;
21480;SDS011;10902;48.158;8.634;2023-08-08T07:07:29;4.07;;;1.45;;
21480;SDS011;10902;48.158;8.634;2023-08-08T07:10:15;3.63;;;1.17;;
21480;SDS011;10902;48.158;8.634;2023-08-08T07:13:01;3.17;;;1.23;;
21480;SDS011;10902;48.158;8.634;2023-08-08T07:15:47;3.70;;;1.30;;
21480;SDS011;10902;48.158;8.634;2023-08-08T07:18:32;2.85;;;1.10;;
21480;SDS011;10902;48.158;8.634;2023-08-08T07:21:18;3.60;;;1.40;;
21480;SDS011;10902;48.158;8.634;2023-08-08T07:24:03;3.95;;;1.20;;
21480;SDS011;10902;48.158;8.634;2023-08-08T07:26:49;4.65;;;1.20;;
21480;SDS011;10902;48.158;8.634;2023-08-08T07:29:34;4.65;;;1.40;;
21480;SDS011;10902;48.158;8.634;2023-08-08T07:32:20;3.60;;;1.33;;
21480;SDS011;10902;48.158;8.634;2023-08-08T07:35:06;4.10;;;1.20;;
21480;SDS011;10902;48.158;8.634;2023-08-08T07:37:53;2.97;;;1.10;;
21480;SDS011;10902;48.158;8.634;2023-08-08T07:40:39;2.72;;;1.13;;
21480;SDS011;10902;48.158;8.634;2023-08-08T07:43:26;3.88;;;1.27;;
21480;SDS011;10902;48.158;8.634;2023-08-08T07:46:12;3.22;;;1.10;;
21480;SDS011;10902;48.158;8.634;2023-08-08T07:48:58;5.25;;;1.40;;
21480;SDS011;10902;48.158;8.634;2023-08-08T07:51:48;4.35;;;1.25;;
21480;SDS011;10902;48.158;8.634;2023-08-08T07:54:34;3.38;;;1.17;;
21480;SDS011;10902;48.158;8.634;2023-08-08T07:57:19;3.35;;;1.20;;
21480;SDS011;10902;48.158;8.634;2023-08-08T08:00:05;5.38;;;1.30;;
21480;SDS011;10902;48.158;8.634;2023-08-08T08:02:56;3.55;;;1.15;;
21480;SDS011;10902;48.158;8.634;2023-08-08T08:05:41;3.50;;;1.20;;
21480;SDS011;10902;48.158;8.634;2023-08-08T08:08:27;4.45;;;1.17;;
21480;SDS011;10902;48.158;8.634;2023-08-08T08:11:13;4.15;;;1.10;;
21480;SDS011;10902;48.158;8.634;2023-08-08T08:14:00;4.07;;;1.33;;
21480;SDS011;10902;48.158;8.634;2023-08-08T08:16:45;4.03;;;1.27;;
21480;SDS011;10902;48.158;8.634;2023-08-08T08:19:31;3.42;;;1.25;;
21480;SDS011;10902;48.158;8.634;2023-08-08T08:22:17;4.82;;;1.30;;
21480;SDS011;10902;48.158;8.634;2023-08-08T08:25:03;4.20;;;1.42;;
21480;SDS011;10902;48.158;8.634;2023-08-08T08:27:49;4.35;;;1.30;;
21480;SDS011;10902;48.158;8.634;2023-08-08T08:30:35;2.95;;;1.02;;
21480;SDS011;10902;48.158;8.634;2023-08-08T08:33:21;5.43;;;1.40;;
21480;SDS011;10902;48.158;8.634;2023-08-08T08:36:07;2.78;;;1.00;;
21480;SDS011;10902;48.158;8.634;2023-08-08T08:38:52;4.07;;;1.10;;
21480;SDS011;10902;48.158;8.634;2023-08-08T08:41:38;3.03;;;1.30;;
21480;SDS011;10902;48.158;8.634;2023-08-08T08:44:24;4.63;;;1.67;;
21480;SDS011;10902;48.158;8.634;2023-08-08T08:47:12;4.20;;;1.23;;
21480;SDS011;10902;48.158;8.634;2023-08-08T08:49:58;7.20;;;1.40;;
21480;SDS011;10902;48.158;8.634;2023-08-08T08:52:44;3.90;;;1.35;;
21480;SDS011;10902;48.158;8.634;2023-08-08T08:55:30;4.00;;;1.35;;
21480;SDS011;10902;48.158;8.634;2023-08-08T08:58:15;3.80;;;1.00;;
21480;SDS011;10902;48.158;8.634;2023-08-08T09:01:03;3.53;;;1.10;;
21480;SDS011;10902;48.158;8.634;2023-08-08T09:03:49;2.50;;;0.93;;
21480;SDS011;10902;48.158;8.634;2023-08-08T09:06:34;3.03;;;1.20;;
21480;SDS011;10902;48.158;8.634;2023-08-08T09:09:20;4.45;;;1.25;;
21480;SDS011;10902;48.158;8.634;2023-08-08T09:12:07;2.97;;;0.90;;
21480;SDS011;10902;48.158;8.634;2023-08-08T09:14:56;3.70;;;1.10;;
21480;SDS011;10902;48.158;8.634;2023-08-08T09:17:43;4.75;;;1.35;;
21480;SDS011;10902;48.158;8.634;2023-08-08T09:20:30;4.47;;;1.27;;
21480;SDS011;10902;48.158;8.634;2023-08-08T09:23:15;4.10;;;1.30;;
21480;SDS011;10902;48.158;8.634;2023-08-08T09:26:01;3.00;;;0.90;;
21480;SDS011;10902;48.158;8.634;2023-08-08T09:28:47;2.67;;;1.02;;
21480;SDS011;10902;48.158;8.634;2023-08-08T09:31:34;4.10;;;1.23;;
21480;SDS011;10902;48.158;8.634;2023-08-08T09:34:24;3.85;;;1.08;;
21480;SDS011;10902;48.158;8.634;2023-08-08T09:37:10;3.03;;;1.20;;
21480;SDS011;10902;48.158;8.634;2023-08-08T09:39:56;3.35;;;1.10;;
21480;SDS011;10902;48.158;8.634;2023-08-08T09:42:42;3.95;;;1.00;;
21480;SDS011;10902;48.158;8.634;2023-08-08T09:45:35;2.88;;;1.20;;
21480;SDS011;10902;48.158;8.634;2023-08-08T09:48:22;3.80;;;1.10;;
21480;SDS011;10902;48.158;8.634;2023-08-08T09:51:13;5.15;;;1.20;;
21480;SDS011;10902;48.158;8.634;2023-08-08T09:53:59;4.63;;;1.23;;
21480;SDS011;10902;48.158;8.634;2023-08-08T09:56:46;4.90;;;1.15;;
21480;SDS011;10902;48.158;8.634;2023-08-08T09:59:33;3.92;;;1.20;;
21480;SDS011;10902;48.158;8.634;2023-08-08T10:02:20;2.70;;;0.95;;
21480;SDS011;10902;48.158;8.634;2023-08-08T10:05:06;6.30;;;1.15;;
21480;SDS011;10902;48.158;8.634;2023-08-08T10:07:52;5.82;;;1.10;;
21480;SDS011;10902;48.158;8.634;2023-08-08T10:10:39;3.35;;;1.00;;
21480;SDS011;10902;48.158;8.634;2023-08-08T10:13:26;3.88;;;1.10;;
21480;SDS011;10902;48.158;8.634;2023-08-08T10:16:11;3.42;;;1.10;;
21480;SDS011;10902;48.158;8.634;2023-08-08T10:19:02;2.72;;;0.90;;
21480;SDS011;10902;48.158;8.634;2023-08-08T10:21:48;3.00;;;0.90;;
21480;SDS011;10902;48.158;8.634;2023-08-08T10:24:46;3.13;;;1.10;;
21480;SDS011;10902;48.158;8.634;2023-08-08T10:27:34;3.38;;;1.20;;
21480;SDS011;10902;48.158;8.634;2023-08-08T10:30:20;2.97;;;0.95;;
21480;SDS011;10902;48.158;8.634;2023-08-08T10:33:06;4.57;;;1.15;;
21480;SDS011;10902;48.158;8.634;2023-08-08T10:36:03;3.65;;;0.95;;
21480;SDS011;10902;48.158;8.634;2023-08-08T10:38:51;3.60;;;1.30;;
21480;SDS011;10902;48.158;8.634;2023-08-08T10:41:43;3.63;;;0.80;;
21480;SDS011;10902;48.158;8.634;2023-08-08T10:44:30;3.72;;;1.30;;
21480;SDS011;10902;48.158;8.634;2023-08-08T10:47:16;4.35;;;1.20;;
21480;SDS011;10902;48.158;8.634;2023-08-08T10:50:21;3.30;;;1.00;;
21480;SDS011;10902;48.158;8.634;2023-08-08T10:53:08;3.38;;;1.00;;
21480;SDS011;10902;48.158;8.634;2023-08-08T10:55:58;3.45;;;1.13;;
21480;SDS011;10902;48.158;8.634;2023-08-08T10:58:49;3.22;;;0.80;;
21480;SDS011;10902;48.158;8.634;2023-08-08T11:01:35;4.20;;;1.20;;
21480;SDS011;10902;48.158;8.634;2023-08-08T11:04:22;3.40;;;1.00;;
21480;SDS011;10902;48.158;8.634;2023-08-08T11:07:11;4.22;;;1.10;;
21480;SDS011;10902;48.158;8.634;2023-08-08T11:09:56;5.07;;;1.25;;
21480;SDS011;10902;48.158;8.634;2023-08-08T11:12:53;3.00;;;1.10;;
21480;SDS011;10902;48.158;8.634;2023-08-08T11:15:43;3.15;;;1.00;;
21480;SDS011;10902;48.158;8.634;2023-08-08T11:18:29;4.63;;;1.40;;
21480;SDS011;10902;48.158;8.634;2023-08-08T11:21:15;2.92;;;1.00;;
21480;SDS011;10902;48.158;8.634;2023-08-08T11:24:01;3.83;;;1.30;;
21480;SDS011;10902;48.158;8.634;2023-08-08T11:26:47;3.33;;;1.10;;
21480;SDS011;10902;48.158;8.634;2023-08-08T11:29:34;4.38;;;1.10;;
21480;SDS011;10902;48.158;8.634;2023-08-08T11:32:19;3.65;;;1.20;;
21480;SDS011;10902;48.158;8.634;2023-08-08T11:35:05;4.03;;;1.38;;
21480;SDS011;10902;48.158;8.634;2023-08-08T11:37:52;4.75;;;1.40;;
21480;SDS011;10902;48.158;8.634;2023-08-08T11:40:38;3.80;;;1.10;;
21480;SDS011;10902;48.158;8.634;2023-08-08T11:43:24;2.53;;;0.90;;
21480;SDS011;10902;48.158;8.634;2023-08-08T11:46:13;3.55;;;1.30;;
21480;SDS011;10902;48.158;8.634;2023-08-08T11:49:06;3.92;;;1.23;;
21480;SDS011;10902;48.158;8.634;2023-08-08T11:51:53;2.67;;;1.00;;
21480;SDS011;10902;48.158;8.634;2023-08-08T11:54:41;3.65;;;1.30;;
21480;SDS011;10902;48.158;8.634;2023-08-08T11:57:26;3.63;;;1.40;;
21480;SDS011;10902;48.158;8.634;2023-08-08T12:00:12;3.25;;;1.15;;
21480;SDS011;10902;48.158;8.634;2023-08-08T12:02:59;4.28;;;1.20;;
21480;SDS011;10902;48.158;8.634;2023-08-08T12:05:46;5.03;;;1.45;;
21480;SDS011;10902;48.158;8.634;2023-08-08T12:08:33;3.40;;;1.02;;
21480;SDS011;10902;48.158;8.634;2023-08-08T12:11:18;3.40;;;1.30;;
21480;SDS011;10902;48.158;8.634;2023-08-08T12:14:06;3.80;;;1.25;;
21480;SDS011;10902;48.158;8.634;2023-08-08T12:16:53;4.13;;;1.20;;
21480;SDS011;10902;48.158;8.634;2023-08-08T12:19:44;4.05;;;1.30;;
21480;SDS011;10902;48.158;8.634;2023-08-08T12:22:33;3.45;;;1.20;;
21480;SDS011;10902;48.158;8.634;2023-08-08T12:25:19;3.97;;;1.40;;
21480;SDS011;10902;48.158;8.634;2023-08-08T12:28:04;3.42;;;1.23;;
21480;SDS011;10902;48.158;8.634;2023-08-08T12:30:50;3.28;;;1.20;;
21480;SDS011;10902;48.158;8.634;2023-08-08T12:33:36;3.83;;;1.38;;
21480;SDS011;10902;48.158;8.634;2023-08-08T12:36:22;3.05;;;1.10;;
21480;SDS011;10902;48.158;8.634;2023-08-08T12:39:07;3.47;;;1.30;;
21480;SDS011;10902;48.158;8.634;2023-08-08T12:41:55;3.83;;;1.23;;
21480;SDS011;10902;48.158;8.634;2023-08-08T12:44:41;4.03;;;1.35;;
21480;SDS011;10902;48.158;8.634;2023-08-08T12:47:27;4.40;;;1.35;;
21480;SDS011;10902;48.158;8.634;2023-08-08T12:50:14;4.40;;;1.45;;
21480;SDS011;10902;48.158;8.634;2023-08-08T12:53:00;3.95;;;1.50;;
21480;SDS011;10902;48.158;8.634;2023-08-08T12:55:45;3.83;;;1.33;;
21480;SDS011;10902;48.158;8.634;2023-08-08T12:58:31;3.58;;;1.30;;
21480;SDS011;10902;48.158;8.634;2023-08-08T13:01:17;4.18;;;1.30;;
21480;SDS011;10902;48.158;8.634;2023-08-08T13:04:02;4.40;;;1.40;;
21480;SDS011;10902;48.158;8.634;2023-08-08T13:06:49;4.47;;;1.60;;
21480;SDS011;10902;48.158;8.634;2023-08-08T13:09:34;3.40;;;1.33;;
21480;SDS011;10902;48.158;8.634;2023-08-08T13:12:20;3.85;;;1.65;;
21480;SDS011;10902;48.158;8.634;2023-08-08T13:15:06;4.68;;;1.35;;
21480;SDS011;10902;48.158;8.634;2023-08-08T13:17:52;3.00;;;1.20;;
21480;SDS011;10902;48.158;8.634;2023-08-08T13:20:38;3.88;;;1.30;;
21480;SDS011;10902;48.158;8.634;2023-08-08T13:23:23;4.93;;;1.20;;
21480;SDS011;10902;48.158;8.634;2023-08-08T13:26:10;3.47;;;1.30;;
21480;SDS011;10902;48.158;8.634;2023-08-08T13:28:56;4.43;;;1.60;;
21480;SDS011;10902;48.158;8.634;2023-08-08T13:31:41;3.92;;;1.30;;
21480;SDS011;10902;48.158;8.634;2023-08-08T13:34:27;3.25;;;1.20;;
21480;SDS011;10902;48.158;8.634;2023-08-08T13:37:12;4.70;;;1.27;;
21480;SDS011;10902;48.158;8.634;2023-08-08T13:39:58;4.18;;;1.42;;
21480;SDS011;10902;48.158;8.634;2023-08-08T13:42:44;4.72;;;1.40;;
21480;SDS011;10902;48.158;8.634;2023-08-08T13:45:32;6.00;;;1.60;;
21480;SDS011;10902;48.158;8.634;2023-08-08T13:48:18;4.05;;;1.42;;
21480;SDS011;10902;48.158;8.634;2023-08-08T13:51:04;4.05;;;1.20;;
21480;SDS011;10902;48.158;8.634;2023-08-08T13:53:49;3.42;;;1.30;;
21480;SDS011;10902;48.158;8.634;2023-08-08T13:56:35;2.97;;;1.10;;
21480;SDS011;10902;48.158;8.634;2023-08-08T13:59:20;7.07;;;1.80;;
21480;SDS011;10902;48.158;8.634;2023-08-08T14:02:06;4.80;;;1.23;;
21480;SDS011;10902;48.158;8.634;2023-08-08T14:04:52;4.57;;;1.13;;
21480;SDS011;10902;48.158;8.634;2023-08-08T14:07:37;3.35;;;1.20;;
21480;SDS011;10902;48.158;8.634;2023-08-08T14:10:23;3.75;;;1.30;;
21480;SDS011;10902;48.158;8.634;2023-08-08T14:13:08;4.03;;;1.20;;
21480;SDS011;10902;48.158;8.634;2023-08-08T14:15:56;2.88;;;1.13;;
21480;SDS011;10902;48.158;8.634;2023-08-08T14:18:42;4.03;;;1.20;;
21480;SDS011;10902;48.158;8.634;2023-08-08T14:21:27;3.22;;;1.15;;
21480;SDS011;10902;48.158;8.634;2023-08-08T14:24:13;5.15;;;1.38;;
21480;SDS011;10902;48.158;8.634;2023-08-08T14:26:59;3.85;;;1.58;;
21480;SDS011;10902;48.158;8.634;2023-08-08T14:29:44;3.60;;;1.10;;
21480;SDS011;10902;48.158;8.634;2023-08-08T14:32:30;4.22;;;1.20;;
21480;SDS011;10902;48.158;8.634;2023-08-08T14:35:15;5.30;;;1.73;;
21480;SDS011;10902;48.158;8.634;2023-08-08T14:38:01;4.25;;;1.10;;
21480;SDS011;10902;48.158;8.634;2023-08-08T14:40:47;3.95;;;1.42;;
21480;SDS011;10902;48.158;8.634;2023-08-08T14:43:32;3.72;;;1.48;;
21480;SDS011;10902;48.158;8.634;2023-08-08T14:46:18;4.55;;;1.10;;
21480;SDS011;10902;48.158;8.634;2023-08-08T14:49:03;2.90;;;0.90;;
21480;SDS011;10902;48.158;8.634;2023-08-08T14:51:51;4.28;;;1.25;;
21480;SDS011;10902;48.158;8.634;2023-08-08T14:54:36;3.45;;;1.25;;
21480;SDS011;10902;48.158;8.634;2023-08-08T14:57:22;3.17;;;1.20;;
21480;SDS011;10902;48.158;8.634;2023-08-08T15:00:08;3.65;;;1.30;;
21480;SDS011;10902;48.158;8.634;2023-08-08T15:02:57;4.00;;;1.25;;
21480;SDS011;10902;48.158;8.634;2023-08-08T15:05:43;4.07;;;1.27;;
21480;SDS011;10902;48.158;8.634;2023-08-08T15:08:30;3.45;;;1.10;;
21480;SDS011;10902;48.158;8.634;2023-08-08T15:11:16;4.70;;;1.30;;
21480;SDS011;10902;48.158;8.634;2023-08-08T15:14:02;3.25;;;1.15;;
21480;SDS011;10902;48.158;8.634;2023-08-08T15:16:48;4.05;;;1.48;;
21480;SDS011;10902;48.158;8.634;2023-08-08T15:19:38;4.22;;;1.23;;
21480;SDS011;10902;48.158;8.634;2023-08-08T15:22:24;2.95;;;1.08;;
21480;SDS011;10902;48.158;8.634;2023-08-08T15:25:09;3.70;;;1.15;;
21480;SDS011;10902;48.158;8.634;2023-08-08T15:27:55;2.95;;;1.05;;
21480;SDS011;10902;48.158;8.634;2023-08-08T15:30:41;4.35;;;1.40;;
21480;SDS011;10902;48.158;8.634;2023-08-08T15:33:26;3.72;;;1.42;;
21480;SDS011;10902;48.158;8.634;2023-08-08T15:36:12;3.88;;;1.10;;
21480;SDS011;10902;48.158;8.634;2023-08-08T15:38:58;3.83;;;1.20;;
21480;SDS011;10902;48.158;8.634;2023-08-08T15:41:43;3.50;;;1.55;;
21480;SDS011;10902;48.158;8.634;2023-08-08T15:44:29;4.43;;;1.15;;
21480;SDS011;10902;48.158;8.634;2023-08-08T15:47:14;3.58;;;1.33;;
21480;SDS011;10902;48.158;8.634;2023-08-08T15:50:00;3.13;;;1.30;;
21480;SDS011;10902;48.158;8.634;2023-08-08T15:52:46;2.85;;;1.13;;
21480;SDS011;10902;48.158;8.634;2023-08-08T15:55:32;3.10;;;1.23;;
21480;SDS011;10902;48.158;8.634;2023-08-08T15:58:18;3.90;;;1.48;;
21480;SDS011;10902;48.158;8.634;2023-08-08T16:01:04;3.97;;;1.17;;
21480;SDS011;10902;48.158;8.634;2023-08-08T16:03:49;3.50;;;1.30;;
21480;SDS011;10902;48.158;8.634;2023-08-08T16:06:35;3.13;;;1.10;;
21480;SDS011;10902;48.158;8.634;2023-08-08T16:09:21;3.75;;;1.33;;
21480;SDS011;10902;48.158;8.634;2023-08-08T16:12:07;2.85;;;1.00;;
21480;SDS011;10902;48.158;8.634;2023-08-08T16:14:52;4.28;;;1.10;;
21480;SDS011;10902;48.158;8.634;2023-08-08T16:17:38;4.22;;;1.13;;
21480;SDS011;10902;48.158;8.634;2023-08-08T16:20:23;3.88;;;1.30;;
21480;SDS011;10902;48.158;8.634;2023-08-08T16:23:09;3.20;;;1.00;;
21480;SDS011;10902;48.158;8.634;2023-08-08T16:25:55;3.03;;;1.20;;
21480;SDS011;10902;48.158;8.634;2023-08-08T16:28:40;3.53;;;1.38;;
21480;SDS011;10902;48.158;8.634;2023-08-08T16:31:26;3.45;;;1.20;;
21480;SDS011;10902;48.158;8.634;2023-08-08T16:34:11;5.32;;;1.45;;
21480;SDS011;10902;48.158;8.634;2023-08-08T16:36:57;3.92;;;1.17;;
21480;SDS011;10902;48.158;8.634;2023-08-08T16:39:42;6.45;;;1.83;;
21480;SDS011;10902;48.158;8.634;2023-08-08T16:42:28;3.80;;;1.20;;
21480;SDS011;10902;48.158;8.634;2023-08-08T16:45:14;3.50;;;1.10;;